Time;durP1;ratioP1;P1;durP2;ratioP2;P2;SDS_P1;SDS_P2;PMS_P1;PMS_P2;Temp;Humidity;BMP_temperature;BMP_pressure;BME280_temperature;BME280_humidity;BME280_pressure;Samples;Min_cycle;Max_cycle;Signal;HPM_P1;HPM_P2
2022/09/01 00:00:49;;;;;;;8.48;4.82;;;;;;;;;;4904108;28;20044;-71
2022/09/01 00:03:23;;;;;;;10.73;4.63;;;;;;;;;;4909966;28;20044;-70
2022/09/01 00:05:53;;;;;;;6.63;4.78;;;;;;;;;;4902760;28;20032;-71
2022/09/01 00:08:20;;;;;;;5.43;3.78;;;;;;;;;;4903358;28;20040;-71
2022/09/01 00:10:46;;;;;;;6.07;3.80;;;;;;;;;;4900197;28;20134;-71
2022/09/01 00:13:12;;;;;;;5.53;4.03;;;;;;;;;;4902748;28;20036;-71
2022/09/01 00:15:38;;;;;;;6.70;4.30;;;;;;;;;;4902168;28;20041;-71
2022/09/01 00:18:05;;;;;;;4.85;3.80;;;;;;;;;;4897683;28;20079;-71
2022/09/01 00:20:31;;;;;;;6.32;3.90;;;;;;;;;;4901484;28;20075;-71
2022/09/01 00:22:59;;;;;;;6.43;4.05;;;;;;;;;;4901010;28;20072;-71
2022/09/01 00:25:26;;;;;;;9.85;4.53;;;;;;;;;;4885228;28;20099;-71
2022/09/01 00:27:53;;;;;;;6.93;4.20;;;;;;;;;;4882372;28;20420;-71
2022/09/01 00:30:19;;;;;;;5.53;3.90;;;;;;;;;;4887509;28;20123;-70
2022/09/01 00:32:46;;;;;;;6.43;3.97;;;;;;;;;;4886334;28;20045;-71
2022/09/01 00:35:16;;;;;;;7.95;4.03;;;;;;;;;;4886547;28;20053;-70
2022/09/01 00:37:43;;;;;;;7.28;4.07;;;;;;;;;;4885828;28;20037;-71
2022/09/01 00:40:10;;;;;;;6.68;4.18;;;;;;;;;;4886052;28;20045;-70
2022/09/01 00:42:37;;;;;;;8.50;4.15;;;;;;;;;;4883790;28;20119;-71
2022/09/01 00:45:03;;;;;;;12.27;4.28;;;;;;;;;;4888039;28;20053;-70
2022/09/01 00:47:29;;;;;;;6.68;4.18;;;;;;;;;;4884318;28;20185;-71
2022/09/01 00:49:56;;;;;;;10.15;4.35;;;;;;;;;;4885286;28;20052;-71
2022/09/01 00:52:25;;;;;;;10.02;4.60;;;;;;;;;;4884595;28;20516;-71
2022/09/01 00:54:54;;;;;;;5.75;4.35;;;;;;;;;;4884576;28;20059;-70
2022/09/01 00:57:20;;;;;;;7.85;4.03;;;;;;;;;;4883970;28;20132;-71
2022/09/01 00:59:53;;;;;;;8.73;4.10;;;;;;;;;;4887584;28;20045;-71
2022/09/01 01:02:19;;;;;;;6.60;4.30;;;;;;;;;;4884435;28;20189;-71
2022/09/01 01:04:45;;;;;;;4.72;3.85;;;;;;;;;;4895648;28;20060;-71
2022/09/01 01:07:11;;;;;;;7.63;3.83;;;;;;;;;;4887346;28;20148;-72
2022/09/01 01:09:39;;;;;;;7.80;4.90;;;;;;;;;;4886595;28;20557;-70
2022/09/01 01:12:06;;;;;;;9.68;5.10;;;;;;;;;;4888943;28;20133;-71
2022/09/01 01:14:35;;;;;;;6.88;3.63;;;;;;;;;;4884073;28;20049;-70
2022/09/01 01:17:02;;;;;;;6.88;4.45;;;;;;;;;;4888168;28;20047;-71
2022/09/01 01:25:06;;;;;;;6.93;3.47;;;;;;;;;;4916876;28;21381;-70
2022/09/01 01:27:33;;;;;;;12.18;4.50;;;;;;;;;;4919528;28;20043;-70
2022/09/01 01:30:00;;;;;;;6.15;3.90;;;;;;;;;;4916663;28;20047;-71
2022/09/01 01:32:28;;;;;;;5.47;3.60;;;;;;;;;;4918442;28;20122;-71
2022/09/01 01:34:55;;;;;;;6.30;3.97;;;;;;;;;;4904432;28;20076;-71
2022/09/01 01:37:23;;;;;;;8.85;4.20;;;;;;;;;;4904614;28;20548;-71
2022/09/01 01:39:50;;;;;;;10.02;4.00;;;;;;;;;;4898410;28;20079;-71
2022/09/01 01:42:16;;;;;;;7.70;4.00;;;;;;;;;;4916998;28;20044;-71
2022/09/01 01:44:43;;;;;;;5.05;3.28;;;;;;;;;;4906925;28;20052;-71
2022/09/01 01:47:11;;;;;;;6.25;3.95;;;;;;;;;;4910802;28;20040;-72
2022/09/01 01:49:42;;;;;;;7.60;3.90;;;;;;;;;;4908931;28;20094;-70
2022/09/01 01:52:09;;;;;;;5.95;3.85;;;;;;;;;;4917709;28;20093;-71
2022/09/01 01:54:36;;;;;;;5.65;3.63;;;;;;;;;;4914577;28;20051;-76
2022/09/01 01:57:03;;;;;;;5.20;3.42;;;;;;;;;;4927859;28;20612;-71
2022/09/01 01:59:29;;;;;;;5.82;4.35;;;;;;;;;;4915898;28;20121;-70
2022/09/01 02:01:55;;;;;;;5.95;3.53;;;;;;;;;;4917557;28;20047;-70
2022/09/01 02:04:22;;;;;;;6.65;3.78;;;;;;;;;;4912479;28;20044;-71
2022/09/01 02:06:50;;;;;;;7.38;4.30;;;;;;;;;;4930872;28;20094;-71
2022/09/01 02:09:17;;;;;;;6.75;3.65;;;;;;;;;;4913352;28;20096;-71
2022/09/01 02:11:44;;;;;;;8.38;3.35;;;;;;;;;;4914617;28;20056;-71
2022/09/01 02:14:12;;;;;;;9.60;4.15;;;;;;;;;;4930189;28;20101;-71
2022/09/01 02:16:38;;;;;;;8.27;3.85;;;;;;;;;;4912743;28;20048;-71
2022/09/01 02:19:07;;;;;;;8.60;4.20;;;;;;;;;;4914565;28;20043;-70
2022/09/01 02:21:33;;;;;;;5.80;3.55;;;;;;;;;;4922813;28;20639;-70
2022/09/01 02:24:01;;;;;;;14.45;3.50;;;;;;;;;;4921304;28;20056;-71
2022/09/01 02:26:30;;;;;;;6.03;2.95;;;;;;;;;;4935774;28;20040;-70
2022/09/01 02:29:00;;;;;;;9.70;3.22;;;;;;;;;;4913527;28;20052;-71
2022/09/01 02:31:26;;;;;;;6.43;4.05;;;;;;;;;;4929612;28;20106;-70
2022/09/01 02:33:53;;;;;;;9.80;3.63;;;;;;;;;;4930321;28;20075;-70
2022/09/01 02:36:19;;;;;;;7.93;3.55;;;;;;;;;;4918701;28;20048;-70
2022/09/01 02:38:47;;;;;;;8.40;4.00;;;;;;;;;;4937994;28;20040;-71
2022/09/01 02:41:13;;;;;;;6.28;3.50;;;;;;;;;;4918471;28;20044;-70
2022/09/01 02:43:43;;;;;;;7.07;3.78;;;;;;;;;;4930344;28;20052;-70
2022/09/01 02:46:10;;;;;;;8.70;3.55;;;;;;;;;;4920016;28;20050;-70
2022/09/01 02:48:38;;;;;;;9.18;3.65;;;;;;;;;;4913128;28;20051;-71
2022/09/01 02:51:15;;;;;;;8.80;3.17;;;;;;;;;;4918512;28;20042;-70
2022/09/01 02:53:42;;;;;;;5.10;3.45;;;;;;;;;;4928609;28;20054;-71
2022/09/01 02:56:12;;;;;;;8.18;3.75;;;;;;;;;;4930161;28;20170;-70
2022/09/01 02:58:44;;;;;;;5.75;3.05;;;;;;;;;;4919138;28;20095;-70
2022/09/01 03:01:11;;;;;;;6.47;2.92;;;;;;;;;;4929249;28;20122;-70
2022/09/01 03:03:38;;;;;;;5.82;3.25;;;;;;;;;;4914043;28;20118;-70
2022/09/01 03:06:06;;;;;;;7.82;3.83;;;;;;;;;;4918869;28;20044;-70
2022/09/01 03:08:35;;;;;;;8.80;3.30;;;;;;;;;;4930918;28;20133;-70
2022/09/01 03:11:01;;;;;;;6.88;3.30;;;;;;;;;;4930324;28;20050;-70
2022/09/01 03:13:28;;;;;;;7.32;3.92;;;;;;;;;;4930977;28;21075;-70
2022/09/01 03:15:54;;;;;;;4.93;3.28;;;;;;;;;;4930810;28;20939;-70
2022/09/01 03:18:20;;;;;;;4.38;2.85;;;;;;;;;;4932602;28;20552;-71
2022/09/01 03:20:49;;;;;;;7.07;4.05;;;;;;;;;;4925487;28;20510;-70
2022/09/01 03:23:17;;;;;;;5.85;3.28;;;;;;;;;;4921470;28;20060;-71
2022/09/01 03:25:44;;;;;;;5.88;3.53;;;;;;;;;;4929432;28;20036;-70
2022/09/01 03:28:11;;;;;;;7.32;4.53;;;;;;;;;;4919656;28;20044;-70
2022/09/01 03:30:39;;;;;;;7.18;3.05;;;;;;;;;;4918593;28;20048;-71
2022/09/01 03:33:06;;;;;;;8.02;2.80;;;;;;;;;;4916464;28;20521;-71
2022/09/01 03:35:32;;;;;;;5.95;3.30;;;;;;;;;;4931174;28;20066;-70
2022/09/01 03:37:59;;;;;;;7.68;3.17;;;;;;;;;;4919017;28;20572;-70
2022/09/01 03:40:26;;;;;;;5.35;3.28;;;;;;;;;;4920027;28;20942;-71
2022/09/01 03:42:54;;;;;;;10.77;4.28;;;;;;;;;;4911753;28;20052;-71
2022/09/01 03:45:20;;;;;;;10.63;3.10;;;;;;;;;;4919059;28;20123;-70
2022/09/01 03:47:47;;;;;;;6.25;3.75;;;;;;;;;;4929047;28;20506;-70
2022/09/01 03:50:20;;;;;;;7.15;2.83;;;;;;;;;;4910689;28;20055;-70
2022/09/01 03:52:52;;;;;;;4.63;2.85;;;;;;;;;;4928235;28;20048;-70
2022/09/01 03:55:22;;;;;;;7.57;3.50;;;;;;;;;;4911848;28;20051;-71
2022/09/01 03:57:52;;;;;;;9.02;3.28;;;;;;;;;;4929806;28;20748;-70
2022/09/01 04:00:21;;;;;;;6.55;4.07;;;;;;;;;;4919611;28;20041;-70
2022/09/01 04:02:49;;;;;;;11.10;3.30;;;;;;;;;;4915677;28;20525;-71
2022/09/01 04:05:17;;;;;;;6.38;3.63;;;;;;;;;;4926982;28;20525;-70
2022/09/01 04:07:45;;;;;;;6.72;3.17;;;;;;;;;;4916228;28;20071;-70
2022/09/01 04:10:11;;;;;;;5.03;3.53;;;;;;;;;;4910170;28;20043;-69
2022/09/01 04:12:38;;;;;;;6.75;3.97;;;;;;;;;;4917056;28;20104;-69
2022/09/01 04:15:06;;;;;;;5.05;3.72;;;;;;;;;;4917073;28;20040;-69
2022/09/01 04:20:19;;;;;;;8.35;3.15;;;;;;;;;;4929428;28;20055;-69
2022/09/01 04:22:52;;;;;;;6.47;3.08;;;;;;;;;;4910728;28;20572;-69
2022/09/01 04:25:26;;;;;;;8.13;3.30;;;;;;;;;;4916733;28;20078;-69
2022/09/01 04:27:55;;;;;;;5.28;2.72;;;;;;;;;;4916626;28;20101;-69
2022/09/01 04:30:25;;;;;;;4.57;3.20;;;;;;;;;;4930088;28;20740;-69
2022/09/01 04:32:55;;;;;;;10.52;3.25;;;;;;;;;;4910745;28;20588;-70
2022/09/01 04:35:31;;;;;;;3.85;2.80;;;;;;;;;;4928730;28;20045;-69
2022/09/01 04:37:58;;;;;;;6.80;3.08;;;;;;;;;;4913779;28;20044;-69
2022/09/01 04:40:26;;;;;;;7.85;3.35;;;;;;;;;;4916714;28;20070;-69
2022/09/01 04:42:52;;;;;;;7.55;3.30;;;;;;;;;;4911622;28;20052;-69
2022/09/01 04:45:21;;;;;;;6.60;3.38;;;;;;;;;;4912610;28;20084;-70
2022/09/01 04:47:47;;;;;;;13.25;5.13;;;;;;;;;;4919924;28;21022;-69
2022/09/01 04:50:16;;;;;;;7.78;3.30;;;;;;;;;;4929497;28;20046;-69
2022/09/01 04:52:42;;;;;;;7.20;3.00;;;;;;;;;;4928776;28;20040;-69
2022/09/01 04:55:16;;;;;;;5.35;3.47;;;;;;;;;;4918213;28;20051;-69
2022/09/01 04:57:46;;;;;;;6.95;2.90;;;;;;;;;;4912509;28;20054;-70
2022/09/01 05:00:21;;;;;;;5.40;2.95;;;;;;;;;;4917335;28;20051;-70
2022/09/01 05:02:47;;;;;;;8.18;2.80;;;;;;;;;;4928029;28;21922;-70
2022/09/01 05:05:13;;;;;;;10.20;4.43;;;;;;;;;;4917033;28;20135;-69
2022/09/01 05:10:57;;;;;;;6.95;3.78;;;;;;;;;;4943662;28;20048;-68
2022/09/01 05:13:23;;;;;;;10.02;3.13;;;;;;;;;;4915748;28;20095;-69
2022/09/01 05:16:00;;;;;;;6.35;4.15;;;;;;;;;;4929514;28;20040;-69
2022/09/01 05:18:27;;;;;;;6.90;3.47;;;;;;;;;;4915933;28;20068;-68
2022/09/01 05:20:54;;;;;;;5.63;2.95;;;;;;;;;;4928727;28;20114;-68
2022/09/01 05:23:20;;;;;;;6.28;3.50;;;;;;;;;;4916447;28;20075;-69
2022/09/01 05:25:48;;;;;;;5.15;3.08;;;;;;;;;;4927631;28;20050;-69
2022/09/01 05:28:18;;;;;;;9.55;3.38;;;;;;;;;;4929549;28;20040;-68
2022/09/01 05:30:45;;;;;;;7.22;3.33;;;;;;;;;;4920817;28;20101;-69
2022/09/01 05:33:14;;;;;;;7.03;2.72;;;;;;;;;;4916705;28;20611;-69
2022/09/01 05:35:43;;;;;;;11.85;4.63;;;;;;;;;;4918860;28;20528;-69
2022/09/01 05:38:11;;;;;;;10.55;3.38;;;;;;;;;;4930224;28;20040;-70
2022/09/01 05:40:42;;;;;;;7.40;3.70;;;;;;;;;;4933589;28;20067;-69
2022/09/01 05:43:12;;;;;;;6.32;3.25;;;;;;;;;;4933203;28;20059;-69
2022/09/01 05:45:42;;;;;;;8.70;3.65;;;;;;;;;;4921210;28;20048;-69
2022/09/01 05:48:16;;;;;;;9.57;3.30;;;;;;;;;;4931845;28;20048;-69
2022/09/01 05:50:42;;;;;;;7.85;2.95;;;;;;;;;;4931777;28;20797;-69
2022/09/01 05:53:14;;;;;;;11.25;3.75;;;;;;;;;;4920354;28;20052;-72
2022/09/01 05:55:42;;;;;;;9.43;3.28;;;;;;;;;;4897941;28;20067;-69
2022/09/01 05:58:13;;;;;;;11.88;4.85;;;;;;;;;;4933357;28;20075;-76
2022/09/01 06:00:45;;;;;;;10.18;3.42;;;;;;;;;;4921610;28;20159;-70
2022/09/01 06:03:13;;;;;;;7.32;2.85;;;;;;;;;;4919294;28;20056;-70
2022/09/01 06:05:39;;;;;;;8.13;4.25;;;;;;;;;;4920764;28;20040;-70
2022/09/01 06:08:07;;;;;;;10.82;4.57;;;;;;;;;;4920010;28;20059;-70
2022/09/01 06:10:35;;;;;;;7.80;3.20;;;;;;;;;;4913494;28;20529;-70
2022/09/01 06:13:02;;;;;;;9.32;3.40;;;;;;;;;;4929813;28;20047;-70
2022/09/01 06:15:29;;;;;;;7.97;3.92;;;;;;;;;;4920538;28;20048;-74
2022/09/01 06:17:55;;;;;;;6.80;3.75;;;;;;;;;;4918684;28;20551;-72
2022/09/01 06:20:22;;;;;;;8.10;3.70;;;;;;;;;;4914362;28;20078;-70
2022/09/01 06:22:48;;;;;;;7.18;3.63;;;;;;;;;;4916721;28;20122;-70
2022/09/01 06:25:17;;;;;;;8.20;3.35;;;;;;;;;;4929930;28;20169;-70
2022/09/01 06:27:43;;;;;;;9.90;3.95;;;;;;;;;;4928907;28;20102;-69
2022/09/01 06:30:13;;;;;;;7.10;3.63;;;;;;;;;;4909566;28;20138;-71
2022/09/01 06:32:42;;;;;;;10.55;4.13;;;;;;;;;;4917672;28;20125;-70
2022/09/01 06:35:10;;;;;;;10.77;4.85;;;;;;;;;;4928983;28;20046;-70
2022/09/01 06:37:37;;;;;;;11.18;4.45;;;;;;;;;;4915685;28;20043;-70
2022/09/01 06:40:04;;;;;;;9.70;3.38;;;;;;;;;;4920796;28;20044;-70
2022/09/01 06:42:34;;;;;;;10.32;3.17;;;;;;;;;;4920429;28;20055;-71
2022/09/01 06:45:00;;;;;;;11.52;4.35;;;;;;;;;;4919778;28;20068;-71
2022/09/01 06:47:27;;;;;;;9.30;4.60;;;;;;;;;;4919837;28;20126;-70
2022/09/01 06:49:57;;;;;;;9.15;3.95;;;;;;;;;;4921483;28;20621;-70
2022/09/01 06:52:23;;;;;;;6.93;3.03;;;;;;;;;;4919483;28;20044;-70
2022/09/01 06:54:52;;;;;;;8.07;4.10;;;;;;;;;;4915057;28;20067;-70
2022/09/01 06:57:18;;;;;;;14.57;4.07;;;;;;;;;;4920238;28;20048;-69
2022/09/01 06:59:44;;;;;;;14.00;5.93;;;;;;;;;;4920726;28;20087;-69
2022/09/01 07:02:15;;;;;;;10.02;4.82;;;;;;;;;;4919991;28;20106;-70
2022/09/01 07:04:44;;;;;;;9.73;5.20;;;;;;;;;;4931360;28;20139;-70
2022/09/01 07:07:11;;;;;;;11.02;4.32;;;;;;;;;;4920016;28;20083;-70
2022/09/01 07:09:38;;;;;;;8.25;4.30;;;;;;;;;;4922394;28;20105;-70
2022/09/01 07:12:05;;;;;;;8.18;3.47;;;;;;;;;;4918880;28;20055;-70
2022/09/01 07:14:31;;;;;;;6.85;4.15;;;;;;;;;;4920209;28;20036;-70
2022/09/01 07:16:57;;;;;;;9.68;3.55;;;;;;;;;;4920350;28;20085;-71
2022/09/01 07:19:24;;;;;;;5.85;3.17;;;;;;;;;;4919159;28;20093;-70
2022/09/01 07:21:52;;;;;;;8.25;3.97;;;;;;;;;;4921863;28;20188;-70
2022/09/01 07:24:19;;;;;;;10.18;4.03;;;;;;;;;;4914888;28;20094;-70
2022/09/01 07:26:48;;;;;;;8.40;5.30;;;;;;;;;;4920132;28;20035;-70
2022/09/01 07:29:16;;;;;;;7.95;3.88;;;;;;;;;;4931454;28;20520;-70
2022/09/01 07:31:42;;;;;;;9.98;4.90;;;;;;;;;;4920977;28;20262;-70
2022/09/01 07:34:11;;;;;;;8.98;4.78;;;;;;;;;;4913278;28;20102;-70
2022/09/01 07:36:38;;;;;;;6.18;3.97;;;;;;;;;;4931483;28;20036;-70
2022/09/01 07:39:04;;;;;;;8.63;3.67;;;;;;;;;;4931552;28;20052;-71
2022/09/01 07:41:33;;;;;;;13.45;4.55;;;;;;;;;;4914449;28;20753;-70
2022/09/01 07:44:01;;;;;;;6.53;3.63;;;;;;;;;;4920553;28;20055;-70
2022/09/01 07:46:30;;;;;;;12.55;6.20;;;;;;;;;;4919711;28;20567;-70
2022/09/01 07:48:57;;;;;;;11.43;4.80;;;;;;;;;;4924161;28;20043;-71
2022/09/01 07:51:25;;;;;;;13.25;5.35;;;;;;;;;;4928384;28;20050;-70
2022/09/01 07:53:51;;;;;;;10.88;5.47;;;;;;;;;;4921049;28;20040;-71
2022/09/01 07:56:18;;;;;;;14.00;5.55;;;;;;;;;;4921083;28;20079;-70
2022/09/01 07:58:45;;;;;;;14.48;5.25;;;;;;;;;;4931870;28;20063;-71
2022/09/01 08:01:12;;;;;;;8.30;4.57;;;;;;;;;;4931148;28;20130;-70
2022/09/01 08:03:39;;;;;;;7.32;4.40;;;;;;;;;;4912431;28;20044;-70
2022/09/01 08:06:07;;;;;;;7.88;4.63;;;;;;;;;;4929865;28;20103;-71
2022/09/01 08:08:33;;;;;;;8.48;5.15;;;;;;;;;;4920367;28;20048;-70
2022/09/01 08:10:59;;;;;;;7.93;5.07;;;;;;;;;;4920071;28;20575;-70
2022/09/01 08:13:26;;;;;;;9.40;4.40;;;;;;;;;;4913447;28;20041;-70
2022/09/01 08:15:52;;;;;;;11.02;4.32;;;;;;;;;;4921029;28;20202;-71
2022/09/01 08:18:19;;;;;;;9.88;4.32;;;;;;;;;;4931581;28;20044;-70
2022/09/01 08:20:46;;;;;;;6.55;5.20;;;;;;;;;;4930345;28;20545;-71
2022/09/01 08:23:18;;;;;;;8.15;4.55;;;;;;;;;;4918595;28;20056;-70
2022/09/01 08:25:44;;;;;;;11.80;5.45;;;;;;;;;;4931401;28;20040;-71
2022/09/01 08:28:11;;;;;;;14.55;6.20;;;;;;;;;;4930528;28;20057;-71
2022/09/01 08:30:39;;;;;;;9.93;5.25;;;;;;;;;;4921443;28;20044;-70
2022/09/01 08:33:05;;;;;;;7.53;4.95;;;;;;;;;;4912951;28;20044;-71
2022/09/01 08:35:31;;;;;;;7.80;6.03;;;;;;;;;;4919230;28;20040;-71
2022/09/01 08:37:58;;;;;;;8.95;5.10;;;;;;;;;;4920591;28;20735;-70
2022/09/01 08:40:25;;;;;;;9.05;5.30;;;;;;;;;;4931540;28;20059;-70
2022/09/01 08:43:00;;;;;;;7.35;5.70;;;;;;;;;;4922011;28;20135;-71
2022/09/01 08:45:32;;;;;;;8.13;5.10;;;;;;;;;;4932336;28;20044;-70
2022/09/01 08:48:02;;;;;;;7.97;4.65;;;;;;;;;;4913414;28;20043;-70
2022/09/01 08:50:28;;;;;;;9.93;4.95;;;;;;;;;;4917586;28;20040;-70
2022/09/01 08:52:58;;;;;;;10.07;5.88;;;;;;;;;;4922475;28;20047;-70
2022/09/01 08:55:28;;;;;;;7.90;5.25;;;;;;;;;;4929914;28;20444;-70
2022/09/01 08:57:56;;;;;;;9.70;4.70;;;;;;;;;;4914182;28;20040;-70
2022/09/01 09:00:24;;;;;;;7.80;4.38;;;;;;;;;;4930793;28;20615;-70
2022/09/01 09:02:53;;;;;;;10.48;5.65;;;;;;;;;;4917540;28;20090;-71
2022/09/01 09:05:19;;;;;;;8.45;5.28;;;;;;;;;;4919859;28;20446;-71
2022/09/01 09:07:46;;;;;;;7.85;4.53;;;;;;;;;;4919819;28;20072;-70
2022/09/01 09:10:22;;;;;;;9.30;4.75;;;;;;;;;;4919231;28;20194;-71
2022/09/01 09:12:54;;;;;;;9.52;5.63;;;;;;;;;;4930316;28;20436;-71
2022/09/01 09:15:20;;;;;;;10.50;4.40;;;;;;;;;;4920665;28;20097;-71
2022/09/01 09:17:52;;;;;;;8.48;4.47;;;;;;;;;;4921664;28;20059;-71
2022/09/01 09:20:19;;;;;;;7.82;5.07;;;;;;;;;;4920326;28;20457;-71
2022/09/01 09:22:46;;;;;;;15.50;4.95;;;;;;;;;;4920034;28;20419;-71
2022/09/01 09:25:14;;;;;;;9.80;4.18;;;;;;;;;;4932222;28;20044;-71
2022/09/01 09:27:47;;;;;;;10.10;5.32;;;;;;;;;;4924854;28;20094;-71
2022/09/01 09:30:33;;;;;;;9.20;4.63;;;;;;;;;;4922224;28;20234;-70
2022/09/01 09:33:03;;;;;;;8.68;4.20;;;;;;;;;;4916074;28;20170;-70
2022/09/01 09:35:31;;;;;;;7.07;4.32;;;;;;;;;;4921687;28;20536;-70
2022/09/01 09:38:18;;;;;;;12.40;4.97;;;;;;;;;;4923608;28;20863;-71
2022/09/01 09:41:03;;;;;;;6.53;3.63;;;;;;;;;;4914947;28;21001;-70
2022/09/01 09:43:31;;;;;;;8.25;3.67;;;;;;;;;;4914920;28;20039;-70
2022/09/01 09:46:16;;;;;;;8.15;4.03;;;;;;;;;;4923421;28;20587;-70
2022/09/01 09:48:42;;;;;;;5.60;4.30;;;;;;;;;;4931570;28;20615;-70
2022/09/01 09:51:21;;;;;;;4.35;3.42;;;;;;;;;;4915312;28;20067;-70
2022/09/01 09:53:47;;;;;;;5.22;3.90;;;;;;;;;;4932079;28;20920;-69
2022/09/01 09:56:23;;;;;;;7.97;4.38;;;;;;;;;;4920060;28;20083;-70
2022/09/01 09:58:50;;;;;;;8.48;4.40;;;;;;;;;;4931756;28;20078;-71
2022/09/01 10:01:22;;;;;;;6.97;3.90;;;;;;;;;;4913022;28;20094;-70
2022/09/01 10:03:54;;;;;;;6.88;3.72;;;;;;;;;;4931422;28;20048;-70
2022/09/01 10:06:29;;;;;;;8.45;4.43;;;;;;;;;;4931733;28;20557;-70
2022/09/01 10:08:55;;;;;;;7.65;4.35;;;;;;;;;;4912747;28;20052;-69
2022/09/01 10:11:45;;;;;;;8.70;3.65;;;;;;;;;;4930990;28;20044;-70
2022/09/01 10:14:18;;;;;;;7.90;4.53;;;;;;;;;;4930827;28;20052;-70
2022/09/01 10:16:45;;;;;;;6.45;3.83;;;;;;;;;;4921918;28;20047;-70
2022/09/01 10:19:12;;;;;;;5.35;4.13;;;;;;;;;;4916342;28;20495;-70
2022/09/01 10:21:40;;;;;;;7.30;3.90;;;;;;;;;;4914837;28;20552;-70
2022/09/01 10:24:12;;;;;;;5.32;3.67;;;;;;;;;;4920925;28;20597;-70
2022/09/01 10:26:39;;;;;;;13.05;4.70;;;;;;;;;;4920486;28;20032;-70
2022/09/01 10:29:07;;;;;;;10.80;4.57;;;;;;;;;;4931430;28;20194;-71
2022/09/01 10:31:34;;;;;;;7.22;5.22;;;;;;;;;;4931555;28;20476;-70
2022/09/01 10:34:02;;;;;;;6.43;4.35;;;;;;;;;;4936112;28;20055;-71
2022/09/01 10:36:29;;;;;;;8.32;4.07;;;;;;;;;;4920866;28;20043;-70
2022/09/01 10:38:55;;;;;;;6.85;3.78;;;;;;;;;;4921679;28;20544;-70
2022/09/01 10:41:40;;;;;;;9.18;4.50;;;;;;;;;;4931723;28;20048;-70
2022/09/01 10:44:10;;;;;;;6.63;3.88;;;;;;;;;;4912953;28;20040;-70
2022/09/01 10:46:36;;;;;;;5.00;3.55;;;;;;;;;;4922146;28;20048;-70
2022/09/01 10:49:12;;;;;;;5.45;4.03;;;;;;;;;;4931695;28;20044;-70
2022/09/01 10:51:43;;;;;;;7.45;3.95;;;;;;;;;;4921588;28;20737;-70
2022/09/01 10:54:09;;;;;;;10.25;4.38;;;;;;;;;;4920036;28;20126;-70
2022/09/01 10:56:38;;;;;;;6.68;4.55;;;;;;;;;;4914923;28;20109;-70
2022/09/01 10:59:07;;;;;;;8.32;4.80;;;;;;;;;;4920741;28;20106;-70
2022/09/01 11:01:39;;;;;;;8.75;4.43;;;;;;;;;;4931330;28;20040;-70
2022/09/01 11:04:15;;;;;;;7.45;4.43;;;;;;;;;;4914430;28;20248;-70
2022/09/01 11:06:41;;;;;;;10.95;4.45;;;;;;;;;;4920758;28;20174;-71
2022/09/01 11:09:28;;;;;;;5.47;4.15;;;;;;;;;;4930954;28;20051;-70
2022/09/01 11:12:10;;;;;;;7.15;4.15;;;;;;;;;;4929164;28;20048;-70
2022/09/01 11:14:52;;;;;;;6.57;3.60;;;;;;;;;;4928137;28;20043;-70
2022/09/01 11:17:20;;;;;;;9.90;4.90;;;;;;;;;;4922329;28;20544;-70
2022/09/01 11:20:07;;;;;;;7.55;3.92;;;;;;;;;;4922324;28;20040;-71
2022/09/01 11:22:42;;;;;;;6.03;4.00;;;;;;;;;;4931574;28;20067;-70
2022/09/01 11:25:11;;;;;;;6.80;3.83;;;;;;;;;;4921324;28;20577;-70
2022/09/01 11:27:57;;;;;;;16.45;4.03;;;;;;;;;;4922152;28;20036;-70
2022/09/01 11:30:32;;;;;;;7.20;3.42;;;;;;;;;;4914341;28;20068;-70
2022/09/01 11:33:02;;;;;;;6.05;3.35;;;;;;;;;;4927978;28;20055;-70
2022/09/01 11:35:28;;;;;;;5.63;3.92;;;;;;;;;;4920169;28;20086;-70
2022/09/01 11:37:56;;;;;;;7.13;3.63;;;;;;;;;;4920714;28;20210;-70
2022/09/01 11:40:25;;;;;;;6.60;3.15;;;;;;;;;;4920850;28;20044;-70
2022/09/01 11:42:53;;;;;;;8.40;4.50;;;;;;;;;;4921745;28;20044;-70
2022/09/01 11:45:30;;;;;;;7.47;3.95;;;;;;;;;;4921516;28;20119;-70
2022/09/01 11:48:17;;;;;;;5.93;3.63;;;;;;;;;;4930796;28;20135;-70
2022/09/01 11:50:43;;;;;;;7.72;3.40;;;;;;;;;;4920343;28;21169;-70
2022/09/01 11:53:14;;;;;;;7.20;4.35;;;;;;;;;;4920284;28;20044;-70
2022/09/01 11:55:45;;;;;;;6.85;3.50;;;;;;;;;;4919440;28;20559;-70
2022/09/01 11:58:12;;;;;;;5.60;3.63;;;;;;;;;;4931223;28;20553;-70
2022/09/01 12:00:40;;;;;;;6.93;3.58;;;;;;;;;;4935978;28;20543;-70
2022/09/01 12:03:25;;;;;;;6.85;3.67;;;;;;;;;;4919614;28;20051;-70
2022/09/01 12:05:58;;;;;;;6.93;3.42;;;;;;;;;;4920088;28;20040;-70
2022/09/01 12:08:26;;;;;;;3.88;3.05;;;;;;;;;;4931220;28;20044;-70
2022/09/01 12:11:03;;;;;;;7.05;3.95;;;;;;;;;;4922085;28;20127;-70
2022/09/01 12:13:29;;;;;;;4.45;3.55;;;;;;;;;;4919334;28;20048;-70
2022/09/01 12:15:56;;;;;;;4.60;3.30;;;;;;;;;;4918834;28;20534;-70
2022/09/01 12:18:30;;;;;;;8.07;3.70;;;;;;;;;;4931152;28;20048;-70
2022/09/01 12:21:00;;;;;;;6.88;3.30;;;;;;;;;;4930801;28;20541;-70
2022/09/01 12:23:29;;;;;;;5.07;3.60;;;;;;;;;;4915963;28;20057;-70
2022/09/01 12:25:57;;;;;;;4.80;3.80;;;;;;;;;;4916056;28;20134;-70
2022/09/01 12:28:24;;;;;;;4.70;3.00;;;;;;;;;;4916626;28;20135;-70
2022/09/01 12:30:52;;;;;;;5.13;3.22;;;;;;;;;;4910475;28;20067;-70
2022/09/01 12:33:19;;;;;;;6.10;3.33;;;;;;;;;;4916245;28;20048;-70
2022/09/01 12:35:45;;;;;;;5.43;3.17;;;;;;;;;;4918258;28;20799;-70
2022/09/01 12:38:20;;;;;;;8.73;3.45;;;;;;;;;;4916005;28;20614;-70
2022/09/01 12:40:48;;;;;;;4.32;2.65;;;;;;;;;;4914926;28;20040;-70
2022/09/01 12:43:38;;;;;;;6.55;3.55;;;;;;;;;;4916071;28;20976;-71
2022/09/01 12:46:05;;;;;;;5.35;3.28;;;;;;;;;;4915242;28;20550;-71
2022/09/01 12:48:34;;;;;;;7.32;3.08;;;;;;;;;;4924697;28;20045;-70
2022/09/01 12:51:26;;;;;;;6.03;2.92;;;;;;;;;;4911781;28;20044;-70
2022/09/01 12:53:54;;;;;;;8.10;3.17;;;;;;;;;;4907225;28;20119;-70
2022/09/01 12:56:29;;;;;;;5.80;3.78;;;;;;;;;;4910848;28;20206;-70
2022/09/01 12:59:04;;;;;;;6.07;2.92;;;;;;;;;;4910158;28;20052;-69
2022/09/01 13:01:32;;;;;;;4.18;2.92;;;;;;;;;;4910937;28;20048;-70
2022/09/01 13:04:33;;;;;;;4.07;3.47;;;;;;;;;;4910705;28;20048;-70
2022/09/01 13:07:06;;;;;;;6.23;3.77;;;;;;;;;;4848677;28;21028;-70
2022/09/01 13:09:32;;;;;;;6.60;3.95;;;;;;;;;;4905716;28;20261;-70
2022/09/01 13:12:15;;;;;;;5.15;3.20;;;;;;;;;;4916788;28;20551;-70
2022/09/01 13:14:41;;;;;;;4.57;2.90;;;;;;;;;;4916248;28;20044;-70
2022/09/01 13:17:07;;;;;;;3.47;2.58;;;;;;;;;;4915740;28;20078;-70
2022/09/01 13:19:33;;;;;;;5.20;3.00;;;;;;;;;;4917679;28;20629;-70
2022/09/01 13:21:59;;;;;;;3.88;2.72;;;;;;;;;;4917895;28;20052;-70
2022/09/01 13:24:25;;;;;;;7.28;3.75;;;;;;;;;;4911849;28;20132;-70
2022/09/01 13:26:56;;;;;;;3.15;2.70;;;;;;;;;;4918152;28;20052;-70
2022/09/01 13:29:22;;;;;;;5.63;2.65;;;;;;;;;;4930168;28;20042;-70
2022/09/01 13:31:48;;;;;;;7.05;3.25;;;;;;;;;;4930311;28;20857;-70
2022/09/01 13:34:14;;;;;;;5.00;2.92;;;;;;;;;;4929684;28;20529;-70
2022/09/01 13:36:40;;;;;;;6.57;3.17;;;;;;;;;;4918226;28;20049;-70
2022/09/01 13:39:06;;;;;;;9.18;3.10;;;;;;;;;;4917273;28;20048;-70
2022/09/01 13:41:32;;;;;;;8.52;3.33;;;;;;;;;;4917355;28;20028;-71
2022/09/01 13:43:59;;;;;;;8.38;3.10;;;;;;;;;;4917473;28;20055;-71
2022/09/01 13:46:25;;;;;;;4.78;3.17;;;;;;;;;;4919268;28;20066;-70
2022/09/01 13:48:52;;;;;;;5.63;3.20;;;;;;;;;;4920000;28;20037;-70
2022/09/01 13:51:25;;;;;;;4.97;3.15;;;;;;;;;;4919289;28;20075;-70
2022/09/01 13:53:51;;;;;;;5.78;3.30;;;;;;;;;;4919202;28;20040;-70
2022/09/01 13:56:18;;;;;;;11.73;4.85;;;;;;;;;;4917539;28;20043;-70
2022/09/01 13:58:44;;;;;;;4.55;3.30;;;;;;;;;;4918603;28;20529;-70
2022/09/01 14:01:12;;;;;;;6.07;2.83;;;;;;;;;;4920619;28;20046;-70
2022/09/01 14:03:38;;;;;;;5.63;3.33;;;;;;;;;;4932619;28;20091;-70
2022/09/01 14:06:05;;;;;;;6.60;3.65;;;;;;;;;;4931484;28;20596;-70
2022/09/01 14:08:32;;;;;;;4.72;3.25;;;;;;;;;;4915234;28;20044;-70
2022/09/01 14:10:58;;;;;;;6.75;2.90;;;;;;;;;;4920217;28;20048;-70
2022/09/01 14:13:25;;;;;;;4.55;3.05;;;;;;;;;;4921726;28;20051;-70
2022/09/01 14:15:52;;;;;;;7.82;4.25;;;;;;;;;;4921249;28;20044;-70
2022/09/01 14:18:18;;;;;;;5.15;3.10;;;;;;;;;;4921981;28;20036;-70
2022/09/01 14:20:46;;;;;;;14.13;3.70;;;;;;;;;;4931536;28;20051;-70
2022/09/01 14:23:14;;;;;;;7.80;3.58;;;;;;;;;;4920905;28;20063;-70
2022/09/01 14:25:44;;;;;;;6.15;3.30;;;;;;;;;;4921901;28;20040;-70
2022/09/01 14:28:10;;;;;;;4.97;2.60;;;;;;;;;;4931912;28;20063;-70
2022/09/01 14:30:36;;;;;;;9.98;3.28;;;;;;;;;;4920474;28;20036;-70
2022/09/01 14:33:02;;;;;;;5.28;3.28;;;;;;;;;;4920265;28;20064;-70
2022/09/01 14:35:31;;;;;;;4.75;3.20;;;;;;;;;;4920089;28;20036;-70
2022/09/01 14:37:58;;;;;;;3.67;2.42;;;;;;;;;;4914907;28;20470;-70
2022/09/01 14:40:24;;;;;;;5.00;2.67;;;;;;;;;;4921174;28;20047;-70
2022/09/01 14:42:51;;;;;;;7.40;2.83;;;;;;;;;;4915002;28;20127;-71
2022/09/01 14:45:22;;;;;;;3.30;2.85;;;;;;;;;;4930929;28;20044;-70
2022/09/01 14:47:49;;;;;;;3.47;2.47;;;;;;;;;;4920747;28;20538;-70
2022/09/01 14:50:18;;;;;;;5.07;2.60;;;;;;;;;;4918825;28;20066;-70
2022/09/01 14:52:44;;;;;;;4.97;2.65;;;;;;;;;;4920638;28;20134;-70
2022/09/01 14:55:10;;;;;;;6.97;3.33;;;;;;;;;;4920811;28;20071;-71
2022/09/01 14:57:36;;;;;;;6.13;3.08;;;;;;;;;;4930496;28;20047;-71
2022/09/01 15:00:04;;;;;;;4.40;2.88;;;;;;;;;;4931069;28;20048;-71
2022/09/01 15:02:31;;;;;;;3.92;2.70;;;;;;;;;;4930895;28;20537;-70